• Join FlightAware (Why Join?)
  • Login
  • US Flag 
03:43AM EDT


 

Airport Tracker/Info


-or-


 

Live Flight TrackerFlight Track Log ✈ RPA3392 ✈ 12-May-2013 ✈ KMSP - KDCA

Flight Track Log - Related Links

Times and Time Zones

All times are in EDT time to prevent confusion due to time zone crossing. See the RPA3392 flight status page for this flight to view local times or setup timezone preferences in your user account.

Time Position Orientation Groundspeed Altitude Reporting Facility
EDT Latitude Longitude Course Direction KTS MPH feet Rate Location/Type
05:55PM 44.9000 -93.2500 115° Southeast 149 171 2,400  Level Minneapolis TRACON
05:56PM 44.9403 -93.2417 North 176 203 3,000 1,800 Climbing Minneapolis Center
05:57PM 45.0044 -93.2358 North 226 260 5,700 2,940 Climbing Minneapolis Center
05:58PM 44.7131 -92.6083 113° Southeast  Level Estimated
05:58PM 45.0600 -93.1811 35° Northeast 269 310 9,100  Level Minneapolis Center
05:59PM 44.6704 -92.4555 125° Southeast  Level Estimated
05:59PM 45.0164 -93.0742 120° Southeast 323 372 11,300  Level Minneapolis Center
06:00PM 44.6274 -92.3030 117° Southeast  Level Estimated
06:00PM 44.9583 -92.9611 126° Southeast 350 403 13,900  Level Minneapolis Center
06:01PM 44.5843 -92.1506 115° Southeast  Level Estimated
06:01PM 44.8836 -92.8211 127° Southeast 370 426 16,600  Level Minneapolis Center
06:02PM 44.8181 -92.6983 127° Southeast 387 445 18,700 2,040 Climbing Minneapolis Center
06:03PM 44.7511 -92.5728 127° Southeast 397 457 20,800 1,980 Climbing Minneapolis Center
06:04PM 44.6822 -92.4436 127° Southeast 410 472 22,800 1,800 Climbing Minneapolis Center
06:05PM 44.6111 -92.3117 127° Southeast 418 481 24,500 1,500 Climbing Minneapolis Center
06:07PM 44.5372 -92.1750 127° Southeast 436 502 25,900 1,380 Climbing Minneapolis Center
06:08PM 44.4653 -92.0339 126° Southeast 445 512 27,400 1,440 Climbing Minneapolis Center
06:09PM 44.3919 -91.8925 126° Southeast 449 517 28,900 1,560 Climbing Minneapolis Center
06:10PM 44.3178 -91.7164 120° Southeast 441 507 30,600 1,500 Climbing Minneapolis Center
06:11PM 44.2608 -91.5667 118° Southeast 439 505 32,000 1,020 Climbing Minneapolis Center
06:12PM 44.2042 -91.4169 118° Southeast 437 503 32,800 480 Climbing Minneapolis Center
06:13PM 44.1439 -91.2606 118° Southeast 443 510 33,000 60 Climbing Minneapolis Center
06:14PM 44.0842 -91.1067 118° Southeast 450 518 33,000  Level Minneapolis Center
06:15PM 44.0256 -90.9533 118° Southeast 451 519 33,000  Level Minneapolis Center
06:16PM 43.9658 -90.8000 118° Southeast 454 522 33,000  Level Minneapolis Center
06:17PM 43.8556 -90.5239 119° Southeast 457 526 33,000  Level Chicago Center
06:18PM 43.8167 -90.4225 118° Southeast 462 532 33,000  Level Minneapolis Center
06:19PM 43.7575 -90.2747 119° Southeast 462 532 33,000  Level Minneapolis Center
06:20PM 43.6933 -90.1125 119° Southeast 460 529 33,000  Level Minneapolis Center
06:21PM 43.6308 -89.9583 119° Southeast 461 531 33,000  Level Minneapolis Center
06:22PM 43.5686 -89.8033 119° Southeast 462 532 33,000  Level Minneapolis Center
06:23PM 43.5381 -89.7264 119° Southeast 460 529 33,000  Level Chicago Center
06:24PM 43.4933 -89.5669 111° Southeast 451 519 33,000  Level Chicago Center
06:25PM 43.4483 -89.4069 111° Southeast 448 516 33,000  Level Chicago Center
06:26PM 43.4017 -89.2467 112° Southeast 451 519 33,000  Level Chicago Center
06:27PM 43.3467 -89.0589 112° Southeast 454 522 33,000  Level Chicago Center
06:28PM 43.2994 -88.8983 112° Southeast 454 522 33,000  Level Chicago Center
06:29PM 43.2522 -88.7378 112° Southeast 458 527 33,000  Level Chicago Center
06:30PM 43.2047 -88.5783 112° Southeast 458 527 33,000  Level Chicago Center
06:31PM 43.1489 -88.3919 112° Southeast 459 528 33,000  Level Chicago Center
06:32PM 43.1106 -88.2289 108° East 454 522 33,000  Level Chicago Center
06:33PM 43.0933 -88.0633 98° East 442 509 33,000  Level Chicago Center
06:34PM 43.0756 -87.8983 98° East 440 506 33,000  Level Chicago Center
06:35PM 43.0564 -87.7328 99° East 442 509 33,000  Level Chicago Center
06:36PM 43.0350 -87.5375 98° East 444 511 33,000  Level Chicago Center
06:37PM 43.0158 -87.3700 99° East 446 513 33,000  Level Chicago Center
06:38PM 42.9992 -87.2186 99° East 449 517 33,000  Level Chicago Center
06:39PM 42.9758 -87.0142 99° East 452 520 33,000  Level Chicago Center
06:40PM 42.9550 -86.8453 100° East 453 521 33,000  Level Chicago Center
06:41PM 42.9353 -86.6778 99° East 449 517 33,000  Level Chicago Center
06:42PM 42.9144 -86.5103 100° East 450 518 33,000  Level Chicago Center
06:43PM 42.8942 -86.3406 99° East 455 524 33,000  Level Chicago Center
06:44PM 42.8692 -86.1397 100° East 455 524 33,000  Level Chicago Center
06:45PM 42.8486 -85.9731 99° East 456 525 33,000  Level Chicago Center
06:46PM 42.8261 -85.8047 100° East 459 528 33,000  Level Chicago Center
06:47PM 42.8042 -85.6328 100° East 459 528 33,000  Level Chicago Center
06:48PM 42.7653 -85.4314 105° East 467 537 33,000  Level Chicago Center
06:49PM 42.7092 -85.2739 116° Southeast 465 535 33,000  Level Chicago Center
06:51PM 42.6539 -85.1192 116° Southeast 465 535 33,000  Level Chicago Center
06:52PM 42.5981 -84.9603 115° Southeast 468 539 33,000  Level Chicago Center
06:53PM 42.5419 -84.8028 116° Southeast 465 535 33,000  Level Chicago Center
06:54PM 42.4853 -84.6467 116° Southeast 464 534 33,000  Level Chicago Center
06:55PM 42.4169 -84.4572 116° Southeast 466 536 33,000  Level Chicago Center
06:56PM 42.3622 -84.3125 117° Southeast 468 539 33,000  Level Cleveland Center
06:57PM 42.3047 -84.1547 116° Southeast 468 539 33,000  Level Cleveland Center
06:58PM 42.2469 -83.9969 116° Southeast 468 539 33,000  Level Cleveland Center
06:59PM 42.1889 -83.8453 117° Southeast 468 539 33,000  Level Cleveland Center
07:00PM 42.1306 -83.6883 117° Southeast 468 539 33,000  Level Cleveland Center
07:01PM 42.0683 -83.5175 116° Southeast 468 539 33,000  Level Cleveland Center
07:02PM 42.0092 -83.3861 121° Southeast 463 533 33,000  Level Cleveland Center
07:03PM 41.9333 -83.2406 125° Southeast 468 539 33,000  Level Cleveland Center
07:04PM 41.8514 -83.0864 125° Southeast 468 539 33,000  Level Cleveland Center
07:05PM 41.7772 -82.9472 126° Southeast 468 539 33,000  Level Cleveland Center
07:06PM 41.7028 -82.8053 125° Southeast 468 539 33,000  Level Cleveland Center
07:07PM 41.6364 -82.6781 125° Southeast 468 539 33,000  Level Cleveland Center
07:08PM 41.5597 -82.5394 126° Southeast 468 539 33,000  Level Cleveland Center
07:09PM 41.4767 -82.3847 126° Southeast 463 533 33,000  Level Cleveland Center
07:10PM 41.4017 -82.2442 125° Southeast 468 539 33,000  Level Cleveland Center
07:12PM 41.2253 -82.0269 137° Southeast 452 520 33,000  Level Cleveland Center
07:13PM 41.1164 -81.9142 142° Southeast 452 520 33,000  Level Cleveland Center
07:14PM 41.0153 -81.8133 143° Southeast 460 529 33,000  Level Cleveland Center
07:15PM 40.9161 -81.7125 142° Southeast 455 524 33,000  Level Cleveland Center
07:16PM 40.8172 -81.6119 142° Southeast 450 518 33,000  Level Cleveland Center
07:17PM 40.7181 -81.5117 143° Southeast 450 518 33,000  Level Cleveland Center
07:18PM 40.6167 -81.4119 143° Southeast 450 518 33,000  Level Cleveland Center
07:19PM 40.5317 -81.3233 142° Southeast 450 518 33,000  Level Cleveland Center
07:20PM 40.4322 -81.2214 142° Southeast 450 518 33,000  Level Cleveland Center
07:21PM 40.3306 -81.1222 143° Southeast 456 525 33,000  Level Cleveland Center
07:22PM 40.2331 -81.0208 142° Southeast 456 525 33,000  Level Cleveland Center
07:23PM 40.1333 -80.9253 144° Southeast 456 525 33,000  Level Cleveland Center
07:24PM 40.0314 -80.8272 144° Southeast 456 525 33,000  Level Cleveland Center
07:25PM 39.9461 -80.7078 133° Southeast 456 525 33,000  Level Cleveland Center
07:26PM 39.8794 -80.5614 121° Southeast 456 525 33,000  Level Cleveland Center
07:27PM 39.8044 -80.3994 121° Southeast 472 543 33,000 -480 Level Cleveland Center
07:28PM 39.7331 -80.2456 121° Southeast 478 550 32,100 -600 Descending Cleveland Center
07:30PM 39.5561 -79.8767 122° Southeast 491 565 31,000 -360 Descending Washington Center
07:31PM 39.4825 -79.7192 121° Southeast 503 579 31,000 -180 Level Washington Center
07:32PM 39.4106 -79.5644 121° Southeast 509 586 30,700 -1,200 Descending Washington Center
07:33PM 39.3344 -79.4100 122° Southeast 521 600 28,700 -2,040 Descending Washington Center
07:34PM 39.2583 -79.2400 120° Southeast 526 605 26,800 -1,800 Descending Washington Center
07:35PM 39.2322 -79.0697 101° East 498 573 25,100 -1,740 Descending Washington Center
07:36PM 39.2181 -78.9056 96° East 473 544 23,300 -2,100 Descending Washington Center
07:37PM 39.2014 -78.7467 98° East 468 539 20,900 -2,040 Descending Washington Center
07:38PM 39.1867 -78.5936 97° East 455 524 19,300 -1,560 Descending Washington Center
07:39PM 39.1714 -78.4431 97° East 432 497 17,800 -1,440 Descending Washington Center
07:40PM 39.1478 -78.3003 102° East 419 482 16,400 -1,320 Descending Washington Center
07:41PM 39.1153 -78.1653 107° East 400 460 15,200 -1,320 Descending Washington Center
07:42PM 39.0783 -78.0303 109° East 395 455 13,900 -1,380 Descending Washington Center
07:43PM 39.0475 -77.9036 107° East 390 449 12,600 -1,260 Descending Washington Center
07:44PM 39.0183 -77.7903 108° East 372 428 11,400 -1,200 Descending Washington Center
07:45PM 38.9833 -77.6586 109° East 359 413 10,200 -1,020 Descending Washington Center
07:46PM 38.9667 -77.6000 110° East 331 381 10,000 -1,140 Descending Potomac TRACON
07:47PM 38.9333 -77.5000 113° Southeast 314 361 8,600 -1,380 Descending Potomac TRACON
07:48PM 38.9000 -77.4167 117° Southeast 303 349 7,400 -1,320 Descending Potomac TRACON
07:49PM 38.8500 -77.3167 123° Southeast 296 341 6,100 -780 Descending Potomac TRACON
07:50PM 38.8167 -77.2333 117° Southeast 296 341 5,900 -600 Descending Potomac TRACON
07:51PM 38.7833 -77.1500 117° Southeast 255 293 4,900 -1,260 Descending Potomac TRACON
07:51PM 38.7333 -77.0833 134° Southeast 226 260 3,600 -1,740 Descending Potomac TRACON
07:52PM 38.7333 -77.0333 90° East 217 250 1,700 -1,920 Descending Potomac TRACON